Time;durP1;ratioP1;P1;durP2;ratioP2;P2;SDS_P1;SDS_P2;PMS_P1;PMS_P2;Temp;Humidity;BMP_temperature;BMP_pressure;BME280_temperature;BME280_humidity;BME280_pressure;Samples;Min_cycle;Max_cycle;Signal;HPM_P1;HPM_P2
2022/05/23 00:02:51;;;;;;;3.17;1.90;;;;;;;15.03;48.66;99532.84;7684423;32;39946;-81
2022/05/23 00:07:15;;;;;;;3.00;2.15;;;;;;;14.79;49.40;99521.31;7684365;32;40888;-81
2022/05/23 00:11:32;;;;;;;3.67;1.98;;;;;;;15.05;48.37;99518.03;7702283;32;38711;-81
2022/05/23 00:15:48;;;;;;;2.42;1.87;;;;;;;14.67;49.90;99518.28;7710432;32;36927;-81
2022/05/23 00:20:07;;;;;;;3.42;2.00;;;;;;;15.01;48.46;99513.13;7683576;32;39224;-81
2022/05/23 00:24:23;;;;;;;5.37;2.05;;;;;;;14.68;49.21;99525.38;7684150;32;39613;-81
2022/05/23 00:28:39;;;;;;;4.00;1.75;;;;;;;14.70;49.07;99523.16;7684046;32;37966;-81
2022/05/23 00:37:30;;;;;;;3.10;2.08;;;;;;;14.73;48.47;99523.34;7683961;32;39337;-81
2022/05/23 00:46:21;;;;;;;13.20;2.42;;;;;;;14.53;49.19;99523.72;7684149;32;38001;-80
2022/05/23 00:50:40;;;;;;;2.90;2.17;;;;;;;14.52;49.26;99524.84;7683512;32;37900;-80
2022/05/23 00:54:59;;;;;;;4.12;2.25;;;;;;;14.45;49.49;99517.84;7689854;32;39256;-81
2022/05/23 00:59:25;;;;;;;4.97;1.77;;;;;;;14.32;49.65;99518.63;7710148;32;38980;-81
2022/05/23 01:03:42;;;;;;;3.55;2.30;;;;;;;14.51;49.01;99528.72;7710034;32;38002;-81
2022/05/23 01:07:59;;;;;;;4.80;2.30;;;;;;;14.37;49.14;99529.50;7693553;32;37485;-81
2022/05/23 01:12:18;;;;;;;4.10;2.08;;;;;;;13.90;50.55;99529.53;7683226;32;40020;-81
2022/05/23 01:16:34;;;;;;;3.87;2.10;;;;;;;14.33;49.25;99522.19;7688613;32;40734;-81
2022/05/23 01:20:58;;;;;;;2.47;1.90;;;;;;;14.31;49.31;99527.97;7708068;32;38878;-81
2022/05/23 01:25:17;;;;;;;5.47;2.42;;;;;;;14.21;49.60;99522.69;7708421;32;38197;-81
2022/05/23 01:29:34;;;;;;;5.22;2.20;;;;;;;13.84;50.79;99525.25;7709423;32;40020;-81
2022/05/23 01:33:50;;;;;;;4.25;2.08;;;;;;;14.21;50.13;99528.16;7711462;32;40173;-81
2022/05/23 01:38:06;;;;;;;3.50;2.17;;;;;;;13.90;51.32;99523.22;7712712;32;37804;-81
2022/05/23 01:42:22;;;;;;;4.20;2.20;;;;;;;13.92;51.64;99521.00;7712706;32;38261;-81
2022/05/23 01:46:38;;;;;;;3.12;1.95;;;;;;;14.12;50.97;99517.06;7705271;32;40072;-80
2022/05/23 01:50:55;;;;;;;3.12;2.17;;;;;;;14.20;53.31;99516.38;7686291;32;38780;-80
2022/05/23 01:55:11;;;;;;;3.03;1.83;;;;;;;14.08;50.20;99511.38;7685553;32;38495;-81
2022/05/23 02:04:01;;;;;;;2.33;2.05;;;;;;;13.93;50.67;99505.37;7684902;32;39644;-81
2022/05/23 02:08:18;;;;;;;3.92;2.37;;;;;;;13.78;50.90;99501.78;7689769;32;40726;-81
2022/05/23 02:12:34;;;;;;;5.20;2.40;;;;;;;13.80;50.82;99496.81;7685575;32;37843;-81
2022/05/23 02:16:50;;;;;;;4.40;2.05;;;;;;;13.48;51.86;99503.91;7690318;32;38419;-81
2022/05/23 02:21:06;;;;;;;5.53;2.25;;;;;;;13.57;51.69;99500.50;7685561;32;40073;-81
2022/05/23 02:25:24;;;;;;;4.12;2.50;;;;;;;13.02;53.43;99501.00;7689551;32;41519;-81
2022/05/23 02:29:40;;;;;;;3.45;2.28;;;;;;;12.99;53.44;99488.75;7689620;32;38028;-82
2022/05/23 02:33:56;;;;;;;3.83;2.08;;;;;;;13.00;53.32;99495.03;7685376;32;37346;-80
2022/05/23 02:38:12;;;;;;;7.25;2.33;;;;;;;13.40;52.17;99495.56;7694861;32;39204;-81
2022/05/23 02:42:28;;;;;;;3.08;2.10;;;;;;;13.24;52.56;99494.94;7711937;32;39844;-82
2022/05/23 02:46:45;;;;;;;3.67;2.15;;;;;;;13.38;51.98;99486.84;7704560;32;37862;-82
2022/05/23 02:51:01;;;;;;;3.12;2.30;;;;;;;13.02;53.04;99481.84;7693565;32;37522;-82
2022/05/23 02:55:17;;;;;;;4.18;2.40;;;;;;;12.83;53.91;99479.09;7685041;32;38918;-82
2022/05/23 02:59:33;;;;;;;3.42;2.30;;;;;;;12.64;54.53;99492.75;7705495;32;40104;-82
2022/05/23 03:03:49;;;;;;;3.47;2.28;;;;;;;12.67;54.11;99494.91;7711528;32;38725;-82
2022/05/23 03:08:06;;;;;;;3.58;2.47;;;;;;;12.51;54.81;99488.81;7706333;32;36890;-82
2022/05/23 03:12:23;;;;;;;3.97;2.67;;;;;;;12.61;55.14;99477.75;7683851;32;39932;-82
2022/05/23 03:16:39;;;;;;;2.75;2.28;;;;;;;12.95;54.25;99472.09;7691315;32;39993;-82
2022/05/23 03:20:59;;;;;;;3.15;2.20;;;;;;;12.80;55.04;99468.75;7684791;32;37933;-82
2022/05/23 03:29:51;;;;;;;3.15;2.30;;;;;;;12.62;55.90;99484.03;7694677;32;39173;-82
2022/05/23 03:34:07;;;;;;;3.42;2.20;;;;;;;12.57;55.79;99477.53;7684673;32;40544;-83
2022/05/23 03:38:23;;;;;;;4.90;2.42;;;;;;;12.69;55.49;99479.81;7696975;32;37779;-82
2022/05/23 03:42:39;;;;;;;5.90;2.42;;;;;;;12.88;55.23;99471.66;7711305;32;37522;-82
2022/05/23 03:46:55;;;;;;;2.45;2.25;;;;;;;12.95;55.07;99471.28;7701591;32;39753;-82
2022/05/23 03:51:11;;;;;;;4.10;2.72;;;;;;;12.91;55.50;99470.25;7711170;32;40032;-82
2022/05/23 03:55:28;;;;;;;2.92;2.33;;;;;;;12.75;56.47;99472.38;7710665;32;38498;-82
2022/05/23 03:59:45;;;;;;;5.18;2.25;;;;;;;12.65;56.32;99472.50;7690093;32;36950;-82
2022/05/23 04:04:01;;;;;;;2.28;2.08;;;;;;;12.77;55.32;99470.97;7684454;32;39352;-82
2022/05/23 04:08:17;;;;;;;9.57;2.75;;;;;;;13.10;54.10;99460.09;7692779;32;40083;-82
2022/05/23 04:12:33;;;;;;;3.70;2.20;;;;;;;12.68;55.85;99470.00;7710825;32;37906;-81
2022/05/23 04:16:50;;;;;;;3.67;2.20;;;;;;;12.86;55.24;99468.37;7700294;32;37124;-82
2022/05/23 04:21:06;;;;;;;2.75;2.22;;;;;;;12.66;55.82;99464.03;7710991;32;39405;-82
2022/05/23 04:25:22;;;;;;;3.10;2.12;;;;;;;12.96;54.85;99467.44;7707142;32;40002;-82
2022/05/23 04:29:39;;;;;;;2.83;2.47;;;;;;;13.20;54.14;99472.03;7691195;32;38638;-82
2022/05/23 04:38:29;;;;;;;7.68;2.42;;;;;;;13.11;54.77;99469.94;7695977;32;39442;-82
2022/05/23 04:42:45;;;;;;;3.03;2.17;;;;;;;13.18;54.86;99469.59;7710459;32;39997;-82
2022/05/23 04:51:44;;;;;;;6.93;2.92;;;;;;;13.48;54.65;99479.25;7697896;32;37531;-82
2022/05/23 04:56:00;;;;;;;7.82;2.30;;;;;;;13.68;54.45;99480.06;7703226;32;40145;-82
2022/05/23 05:00:19;;;;;;;3.60;2.10;;;;;;;13.82;54.46;99472.66;7704984;32;39972;-82
2022/05/23 05:04:35;;;;;;;3.10;2.47;;;;;;;13.95;53.97;99475.75;7710032;32;38530;-82
2022/05/23 05:08:51;;;;;;;4.80;2.45;;;;;;;13.74;55.49;99489.00;7694942;32;37863;-82
2022/05/23 05:13:08;;;;;;;5.95;2.50;;;;;;;13.79;55.49;99491.66;7683153;32;40055;-82
2022/05/23 05:17:24;;;;;;;3.90;2.28;;;;;;;14.23;53.65;99487.56;7694304;32;39973;-82
2022/05/23 05:21:40;;;;;;;8.35;2.60;;;;;;;14.48;52.84;99479.94;7681592;32;38214;-82
2022/05/23 05:26:05;;;;;;;5.20;2.20;;;;;;;14.60;52.82;99475.59;7687974;32;37562;-82
2022/05/23 05:30:22;;;;;;;14.25;2.60;;;;;;;15.01;51.47;99468.41;7684945;32;39983;-82
2022/05/23 05:34:51;;;;;;;5.43;2.22;;;;;;;14.98;52.11;99464.34;7682590;32;39654;-83
2022/05/23 05:39:08;;;;;;;3.22;2.20;;;;;;;14.81;52.78;99476.00;7697767;32;38479;-82
2022/05/23 05:43:29;;;;;;;4.32;2.40;;;;;;;15.10;51.98;99473.97;7708949;32;36905;-82
2022/05/23 05:47:47;;;;;;;3.12;2.10;;;;;;;15.16;52.96;99475.47;7689914;32;39300;-82
2022/05/23 05:52:26;;;;;;;4.10;2.40;;;;;;;15.23;52.82;99475.87;7681797;32;41027;-82
2022/05/23 05:56:45;;;;;;;7.43;2.20;;;;;;;15.40;52.49;99487.00;7681601;32;37932;-83
2022/05/23 06:01:01;;;;;;;4.32;2.10;;;;;;;15.75;51.95;99479.03;7707515;32;37559;-83
2022/05/23 06:05:18;;;;;;;4.37;2.10;;;;;;;15.94;51.20;99480.75;7704553;32;39696;-83
2022/05/23 06:14:08;;;;;;;3.03;1.83;;;;;;;16.67;52.43;99488.66;7708483;32;39044;-78
2022/05/23 06:18:25;;;;;;;3.65;2.10;;;;;;;16.38;50.83;99491.94;7684431;32;36877;-81
2022/05/23 06:22:41;;;;;;;4.87;1.95;;;;;;;17.09;48.64;99489.06;7685848;32;39020;-80
2022/05/23 06:26:57;;;;;;;4.82;1.90;;;;;;;17.49;47.56;99491.69;7686768;32;40047;-79
2022/05/23 06:31:15;;;;;;;5.95;1.48;;;;;;;17.89;45.30;99487.94;7707117;32;37831;-79
2022/05/23 06:35:31;;;;;;;7.70;1.75;;;;;;;18.07;45.19;99488.69;7710827;32;36937;-78
2022/05/23 06:39:47;;;;;;;2.25;1.48;;;;;;;18.08;44.79;99479.28;7712113;32;40077;-79
2022/05/23 06:44:03;;;;;;;3.65;1.60;;;;;;;18.35;43.61;99473.31;7712073;32;40006;-80
2022/05/23 06:48:19;;;;;;;2.80;1.70;;;;;;;18.47;43.46;99464.34;7709583;32;37890;-79
2022/05/23 06:52:36;;;;;;;3.15;1.70;;;;;;;18.59;43.56;99460.84;7711489;32;36861;-80
2022/05/23 06:56:52;;;;;;;3.53;1.50;;;;;;;18.36;43.04;99452.84;7711924;32;39876;-84
2022/05/23 07:01:08;;;;;;;10.10;2.00;;;;;;;18.58;43.86;99449.00;7711912;32;40911;-75
2022/05/23 07:14:33;;;;;;;2.60;1.70;;;;;;;19.23;41.89;99443.22;7710649;32;39346;-78
2022/05/23 07:18:50;;;;;;;4.90;2.00;;;;;;;18.91;41.76;99444.78;7710187;32;40180;-79
2022/05/23 07:23:06;;;;;;;5.95;1.70;;;;;;;19.42;42.12;99448.25;7709758;32;40043;-78
2022/05/23 07:27:27;;;;;;;2.80;1.50;;;;;;;19.69;41.83;99437.72;7710771;32;37727;-78
2022/05/23 07:31:44;;;;;;;2.97;1.45;;;;;;;19.67;40.94;99428.97;7711273;32;39016;-78
2022/05/23 07:36:01;;;;;;;2.78;1.42;;;;;;;20.23;40.67;99421.03;7711565;32;40095;-79
2022/05/23 07:40:18;;;;;;;1.70;1.25;;;;;;;20.53;36.77;99420.78;7711406;32;37882;-79
2022/05/23 07:44:35;;;;;;;2.10;1.30;;;;;;;20.53;37.41;99412.47;7710277;32;37017;-79
2022/05/23 07:48:52;;;;;;;3.08;1.00;;;;;;;20.45;34.74;99424.47;7711347;32;39202;-79
2022/05/23 08:02:18;;;;;;;1.80;1.25;;;;;;;21.41;30.82;99422.19;7711180;32;37067;-79
2022/05/23 08:06:35;;;;;;;3.37;1.30;;;;;;;21.55;32.26;99417.84;7710996;32;39222;-79
2022/05/23 08:10:51;;;;;;;5.55;1.20;;;;;;;21.90;30.96;99405.28;7710873;32;40401;-79
2022/05/23 08:15:07;;;;;;;3.00;1.10;;;;;;;21.96;32.28;99403.88;7710946;32;38401;-80
2022/05/23 08:19:23;;;;;;;3.87;1.05;;;;;;;22.00;31.92;99398.41;7710738;32;36957;-80
2022/05/23 08:23:39;;;;;;;3.83;1.35;;;;;;;21.83;31.25;99394.81;7710859;32;39447;-79
2022/05/23 08:27:56;;;;;;;2.42;0.93;;;;;;;21.58;30.28;99399.72;7710906;32;40228;-81
2022/05/23 08:32:14;;;;;;;3.78;1.10;;;;;;;22.42;30.06;99392.28;7710761;32;38003;-81
2022/05/23 08:36:32;;;;;;;3.33;1.40;;;;;;;22.20;31.87;99393.75;7708137;32;36169;-79
2022/05/23 08:41:12;;;;;;;3.55;1.35;;;;;;;22.08;32.26;99392.66;7707361;32;39293;-81
2022/05/23 08:45:37;;;;;;;2.45;1.10;;;;;;;22.53;30.75;99384.22;7701120;32;40072;-81
2022/05/23 08:50:05;;;;;;;2.05;1.35;;;;;;;22.76;28.95;99362.09;7698899;32;38087;-78
2022/05/23 08:54:26;;;;;;;0.93;0.90;;;;;;;22.59;29.36;99369.66;7683827;32;36719;-78
2022/05/23 08:58:56;;;;;;;3.35;1.20;;;;;;;23.32;25.64;99355.28;7683813;32;39419;-78
2022/05/23 09:03:32;;;;;;;0.90;0.80;;;;;;;22.85;23.94;99344.06;7700288;32;40187;-76
2022/05/23 09:07:55;;;;;;;3.15;1.37;;;;;;;23.36;24.12;99339.50;7710116;32;38229;-75
2022/05/23 09:12:14;;;;;;;1.52;0.82;;;;;;;23.24;23.03;99332.91;7709019;32;37521;-77
2022/05/23 09:16:44;;;;;;;2.95;1.10;;;;;;;23.67;25.07;99326.53;7708832;32;39218;-77
2022/05/23 09:21:04;;;;;;;2.80;0.95;;;;;;;23.77;22.20;99325.91;7709763;32;40858;-76
2022/05/23 09:25:27;;;;;;;2.95;0.80;;;;;;;23.83;23.70;99330.00;7708188;32;37372;-79
2022/05/23 09:29:49;;;;;;;2.90;0.95;;;;;;;23.57;22.43;99331.53;7709689;32;37742;-79
2022/05/23 09:34:05;;;;;;;4.35;1.52;;;;;;;22.67;23.48;99337.31;7706864;32;39662;-78
2022/05/23 09:38:27;;;;;;;3.83;1.20;;;;;;;23.01;22.94;99334.84;7690049;32;39914;-78
2022/05/23 09:52:15;;;;;;;1.30;0.80;;;;;;;23.25;23.52;99323.41;7682588;32;39333;-77
2022/05/23 09:56:31;;;;;;;4.15;1.30;;;;;;;23.39;22.08;99322.87;7686542;32;40721;-77
2022/05/23 10:01:08;;;;;;;10.40;1.40;;;;;;;23.51;22.68;99319.12;7685915;32;38700;-77
2022/05/23 10:05:27;;;;;;;1.90;0.90;;;;;;;23.62;23.45;99324.84;7684886;32;37324;-77
2022/05/23 10:09:54;;;;;;;12.18;1.42;;;;;;;23.81;22.41;99332.34;7685965;32;40028;-77
2022/05/23 10:14:16;;;;;;;1.08;0.90;;;;;;;24.13;25.69;99326.50;7684715;32;39991;-77
2022/05/23 10:18:35;;;;;;;1.80;1.10;;;;;;;24.26;22.80;99313.97;7684579;32;38306;-78
2022/05/23 10:22:57;;;;;;;2.47;0.80;;;;;;;24.62;22.37;99313.69;7684609;32;37631;-77
2022/05/23 10:27:17;;;;;;;3.28;0.90;;;;;;;24.81;22.01;99296.78;7686333;32;39286;-77
2022/05/23 10:31:52;;;;;;;1.98;1.12;;;;;;;24.85;22.14;99303.25;7684353;32;39572;-79
2022/05/23 10:36:14;;;;;;;3.17;1.20;;;;;;;25.19;21.20;99292.03;7685953;32;37949;-78
2022/05/23 10:45:16;;;;;;;4.37;1.98;;;;;;;24.95;21.25;99292.59;7710684;32;39831;-77
2022/05/23 10:50:09;;;;;;;3.05;1.30;;;;;;;24.78;22.36;99289.19;7712139;32;39988;-77
2022/05/23 10:54:40;;;;;;;2.80;1.20;;;;;;;25.08;21.65;99280.78;7675383;32;37736;-78
2022/05/23 10:59:20;;;;;;;17.27;2.70;;;;;;;25.60;22.09;99277.31;7710806;32;37658;-78
2022/05/23 11:03:47;;;;;;;3.12;1.02;;;;;;;25.48;23.13;99276.41;7710607;32;39288;-78
2022/05/23 11:08:15;;;;;;;2.15;0.90;;;;;;;25.62;20.33;99264.56;7710346;32;40794;-78
2022/05/23 11:13:10;;;;;;;4.53;1.00;;;;;;;25.48;20.15;99262.44;7685922;32;38726;-78
2022/05/23 11:17:34;;;;;;;1.60;1.02;;;;;;;25.28;20.02;99258.28;7656684;32;36849;-81
2022/05/23 11:22:09;;;;;;;1.30;1.05;;;;;;;24.65;21.73;99260.00;7685260;32;39990;-82
2022/05/23 11:26:33;;;;;;;2.62;1.15;;;;;;;24.59;20.83;99259.50;7692053;32;39906;-80
2022/05/23 11:35:43;;;;;;;2.35;1.15;;;;;;;24.76;20.63;99251.75;7707799;32;37751;-78
2022/05/23 11:40:06;;;;;;;4.82;1.10;;;;;;;25.53;20.59;99255.72;7698559;32;39174;-77
2022/05/23 11:44:42;;;;;;;1.27;0.98;;;;;;;25.42;20.69;99249.25;7684155;32;39902;-79
2022/05/23 11:49:00;;;;;;;2.65;1.40;;;;;;;25.11;19.92;99240.97;7693547;32;38747;-81
2022/05/23 11:53:46;;;;;;;2.97;1.08;;;;;;;25.67;20.30;99244.66;7693452;32;36138;-82
2022/05/23 11:58:21;;;;;;;4.75;1.30;;;;;;;26.18;20.13;99248.63;7697102;32;40186;-82
2022/05/23 12:02:40;;;;;;;3.87;1.00;;;;;;;26.38;20.14;99254.69;7711160;32;39584;-81
2022/05/23 12:06:56;;;;;;;2.35;0.82;;;;;;;26.41;20.04;99253.13;7708696;32;37959;-87
2022/05/23 12:11:22;;;;;;;1.73;0.90;;;;;;;25.91;20.42;99247.25;7707554;32;37078;-84
2022/05/23 12:15:44;;;;;;;2.25;1.02;;;;;;;26.04;21.44;99256.91;7686364;32;40012;-84
2022/05/23 12:20:05;;;;;;;1.60;1.00;;;;;;;25.54;22.57;99239.78;7695636;32;39727;-83
2022/05/23 12:24:25;;;;;;;1.85;1.08;;;;;;;25.68;22.76;99234.28;7692536;32;37893;-84
2022/05/23 12:29:19;;;;;;;1.90;1.05;;;;;;;25.47;23.82;99224.59;7698950;32;37162;-86
2022/05/23 12:33:38;;;;;;;3.85;1.00;;;;;;;25.54;21.97;99223.03;7703611;32;41895;-83
2022/05/23 12:38:05;;;;;;;3.58;1.25;;;;;;;25.43;21.61;99217.38;7689157;32;38862;-80
2022/05/23 12:42:35;;;;;;;2.08;1.20;;;;;;;25.60;21.21;99213.91;7707570;32;37935;-84
2022/05/23 12:47:16;;;;;;;1.30;1.10;;;;;;;25.86;21.32;99209.31;7709666;32;36691;-84
2022/05/23 12:52:02;;;;;;;2.37;1.30;;;;;;;26.59;20.79;99203.66;7703102;32;224392;-84
2022/05/23 12:56:36;;;;;;;2.28;1.20;;;;;;;26.63;20.35;99200.13;7698163;32;41213;-83
2022/05/23 13:01:00;;;;;;;2.28;1.05;;;;;;;27.01;19.87;99190.25;7701653;32;36256;-83
2022/05/23 13:05:21;;;;;;;3.25;1.23;;;;;;;27.30;18.79;99185.50;7689072;32;36942;-83
2022/05/23 13:09:44;;;;;;;3.40;1.10;;;;;;;27.77;19.81;99190.22;7709355;32;39449;-84
2022/05/23 13:14:00;;;;;;;;;;;;;;;27.82;19.30;99178.59;7709290;32;40804;-83
2022/05/23 13:23:02;;;;;;;1.30;1.20;;;;;;;27.38;19.71;99168.69;7682566;32;36820;-83
2022/05/23 13:27:25;;;;;;;2.17;1.27;;;;;;;27.51;19.45;99159.47;7682926;32;40032;-84
2022/05/23 13:31:43;;;;;;;1.02;1.00;;;;;;;28.45;18.27;99157.19;7707940;32;40868;-83
2022/05/23 13:36:06;;;;;;;1.67;1.10;;;;;;;28.17;18.22;99157.34;7712715;32;37937;-84
2022/05/23 13:40:29;;;;;;;3.40;1.37;;;;;;;27.90;18.38;99155.78;7712207;32;37048;-83
2022/05/23 13:44:46;;;;;;;3.12;1.20;;;;;;;28.29;17.88;99157.66;7712821;32;39336;-83
2022/05/23 13:49:11;;;;;;;2.50;1.20;;;;;;;28.60;17.71;99146.72;7711196;32;40139;-84
2022/05/23 13:53:39;;;;;;;2.10;1.20;;;;;;;29.18;17.87;99149.94;7701414;32;38575;-83
2022/05/23 13:58:00;;;;;;;2.78;1.30;;;;;;;28.78;17.53;99143.78;7708868;32;37202;-83
2022/05/23 14:02:24;;;;;;;2.00;1.20;;;;;;;28.58;17.82;99134.31;7693214;32;39435;-83
2022/05/23 14:06:48;;;;;;;2.92;1.17;;;;;;;29.26;17.33;99142.25;7690685;32;40088;-84
2022/05/23 14:11:09;;;;;;;1.92;1.00;;;;;;;28.84;16.62;99135.75;7710193;32;37777;-85
2022/05/23 14:15:27;;;;;;;3.35;1.15;;;;;;;29.01;17.79;99131.19;7698403;32;36864;-82
2022/05/23 14:19:51;;;;;;;3.00;1.20;;;;;;;29.51;17.29;99119.56;7710720;32;38384;-83
2022/05/23 14:24:30;;;;;;;3.53;1.30;;;;;;;29.71;17.44;99119.72;7709306;32;40813;-82
2022/05/23 14:28:49;;;;;;;2.37;1.08;;;;;;;29.76;16.84;99110.88;7711144;32;38675;-83
2022/05/23 14:33:16;;;;;;;4.45;1.10;;;;;;;29.39;16.85;99112.47;7709442;32;37294;-83
2022/05/23 14:37:32;;;;;;;4.95;1.20;;;;;;;29.77;17.21;99114.50;7709635;32;39624;-83
2022/05/23 14:41:50;;;;;;;1.60;1.00;;;;;;;29.66;16.62;99100.53;7700647;32;40779;-83
2022/05/23 14:46:25;;;;;;;2.10;1.20;;;;;;;29.88;17.26;99097.53;7693561;32;39232;-80
2022/05/23 14:50:57;;;;;;;3.75;1.58;;;;;;;29.82;16.76;99099.19;7711647;32;37618;-80
2022/05/23 14:55:22;;;;;;;3.20;1.05;;;;;;;29.76;16.80;99087.63;7711106;32;40097;-82
2022/05/23 15:04:28;;;;;;;1.62;1.20;;;;;;;29.61;17.72;99094.59;7690471;32;37792;-81
2022/05/23 15:08:45;;;;;;;6.03;1.70;;;;;;;28.58;17.13;99086.66;7682139;32;36560;-82
2022/05/23 15:13:01;;;;;;;2.70;1.40;;;;;;;29.27;17.35;99075.69;7683867;32;39774;-82
2022/05/23 15:17:24;;;;;;;1.95;1.10;;;;;;;28.73;17.98;99076.91;7686266;32;40151;-83
2022/05/23 15:21:40;;;;;;;2.35;1.37;;;;;;;28.75;19.72;99068.91;7702369;32;37875;-83
2022/05/23 15:26:01;;;;;;;2.70;1.20;;;;;;;29.81;18.29;99066.72;7691064;32;37775;-82
2022/05/23 15:30:24;;;;;;;3.10;1.48;;;;;;;29.86;17.35;99055.00;7683371;32;39086;-83
2022/05/23 15:34:40;;;;;;;2.75;1.20;;;;;;;29.68;17.39;99049.56;7684518;32;39963;-86
2022/05/23 15:38:57;;;;;;;4.47;1.45;;;;;;;29.10;17.87;99052.97;7708292;32;37951;-83
2022/05/23 15:43:17;;;;;;;3.08;1.37;;;;;;;28.58;17.78;99044.59;7711098;32;37166;-86
2022/05/23 15:47:34;;;;;;;2.87;1.30;;;;;;;28.05;18.76;99044.50;7710122;32;39477;-85
2022/05/23 15:51:50;;;;;;;1.90;1.30;;;;;;;28.39;18.25;99045.91;7710268;32;39845;-82
2022/05/23 15:56:08;;;;;;;4.03;1.35;;;;;;;27.96;18.99;99046.16;7694774;32;37912;-84
2022/05/23 16:00:27;;;;;;;5.87;1.70;;;;;;;28.37;18.68;99043.53;7692465;32;38427;-83
2022/05/23 16:04:45;;;;;;;5.18;1.50;;;;;;;28.59;18.84;99027.34;7698653;32;40098;-83
2022/05/23 16:09:02;;;;;;;3.08;1.55;;;;;;;28.76;18.72;99022.81;7692807;32;42259;-82
2022/05/23 16:13:18;;;;;;;3.70;1.37;;;;;;;28.56;19.28;99028.22;7698776;32;37943;-80
2022/05/23 16:17:37;;;;;;;2.75;1.45;;;;;;;28.93;18.29;99023.88;7710231;32;38033;-79
2022/05/23 16:21:53;;;;;;;3.10;1.37;;;;;;;29.10;19.83;99033.34;7709393;32;39008;-80
2022/05/23 16:26:12;;;;;;;4.93;1.30;;;;;;;29.35;19.62;99027.47;7708822;32;39983;-82
2022/05/23 16:30:32;;;;;;;4.12;1.37;;;;;;;29.48;19.87;99021.34;7710207;32;38032;-80
2022/05/23 16:39:23;;;;;;;2.90;1.40;;;;;;;29.59;18.23;99005.16;7707871;32;39415;-79
2022/05/23 16:43:59;;;;;;;5.55;1.40;;;;;;;29.26;18.57;99006.75;7709288;32;40134;-79
2022/05/23 16:48:16;;;;;;;2.67;1.30;;;;;;;29.07;18.55;99010.94;7709838;32;38471;-80
2022/05/23 16:52:32;;;;;;;4.35;1.58;;;;;;;29.16;18.40;99009.22;7710046;32;37161;-80
2022/05/23 16:56:48;;;;;;;4.75;1.40;;;;;;;29.10;18.91;99005.28;7709819;32;39282;-80
2022/05/23 17:01:07;;;;;;;4.60;1.40;;;;;;;28.68;19.09;99012.06;7708732;32;39910;-79
2022/05/23 17:05:24;;;;;;;3.25;1.50;;;;;;;28.48;19.94;99005.00;7708878;32;38632;-79
2022/05/23 17:09:40;;;;;;;5.90;1.60;;;;;;;28.08;19.89;99009.28;7707840;32;37825;-80
2022/05/23 17:13:57;;;;;;;7.10;1.77;;;;;;;27.73;21.09;99008.22;7709678;32;39553;-79
2022/05/23 17:18:13;;;;;;;4.68;1.33;;;;;;;27.52;21.92;99004.31;7708870;32;40515;-79
2022/05/23 17:22:29;;;;;;;3.05;1.23;;;;;;;27.31;22.77;99008.00;7708214;32;39213;-80
2022/05/23 17:26:45;;;;;;;3.35;1.60;;;;;;;26.87;23.64;99012.06;7694584;32;37329;-79
2022/05/23 17:31:01;;;;;;;3.90;1.70;;;;;;;26.71;24.00;99009.66;7695802;32;39127;-80
2022/05/23 17:35:18;;;;;;;3.83;1.58;;;;;;;26.49;24.23;99014.44;7704470;32;40020;-74
2022/05/23 17:39:34;;;;;;;3.00;1.60;;;;;;;26.20;25.60;99014.38;7705765;32;38740;-76
2022/05/23 17:43:51;;;;;;;2.87;1.48;;;;;;;26.01;26.04;99012.75;7691992;32;37926;-73
2022/05/23 17:48:07;;;;;;;2.62;1.27;;;;;;;25.62;26.95;99007.00;7703705;32;39089;-72
2022/05/23 17:52:26;;;;;;;4.97;1.70;;;;;;;25.49;27.25;99018.53;7707370;32;40701;-73
2022/05/23 17:56:42;;;;;;;4.10;1.58;;;;;;;25.48;27.11;99030.06;7708446;32;38600;-73
2022/05/23 18:00:58;;;;;;;5.28;1.67;;;;;;;25.25;28.00;99027.50;7707292;32;36987;-82
2022/05/23 18:05:17;;;;;;;2.30;1.55;;;;;;;25.08;28.14;99024.22;7708432;32;40156;-82
2022/05/23 18:09:34;;;;;;;5.70;1.70;;;;;;;24.83;28.96;99017.69;7697790;32;39896;-81
2022/05/23 18:22:59;;;;;;;5.80;1.77;;;;;;;23.86;30.31;99039.81;7712380;32;39009;-82
2022/05/23 18:27:15;;;;;;;3.55;1.52;;;;;;;23.94;29.19;99041.50;7712279;32;40500;-82
2022/05/23 18:31:31;;;;;;;2.70;1.62;;;;;;;23.70;30.56;99053.91;7712177;32;38683;-82
2022/05/23 18:35:47;;;;;;;3.53;1.62;;;;;;;23.36;31.90;99048.28;7712376;32;37858;-82
2022/05/23 18:40:04;;;;;;;2.25;1.62;;;;;;;23.40;31.31;99059.44;7697835;32;39259;-83
2022/05/23 18:44:20;;;;;;;3.28;1.90;;;;;;;23.15;32.10;99068.25;7685292;32;40088;-82
2022/05/23 18:53:12;;;;;;;6.97;2.25;;;;;;;22.88;31.09;99087.63;7711593;32;37342;-81
2022/05/23 18:57:28;;;;;;;6.28;3.28;;;;;;;22.52;32.39;99097.31;7711706;32;39415;-81
2022/05/23 19:01:45;;;;;;;3.28;2.00;;;;;;;22.62;32.56;99091.16;7711535;32;40469;-82
2022/05/23 19:06:02;;;;;;;3.20;1.77;;;;;;;22.41;32.64;99097.12;7711423;32;37842;-81
2022/05/23 19:10:18;;;;;;;4.95;2.20;;;;;;;22.16;33.07;99091.06;7709880;32;37867;-82
2022/05/23 19:14:34;;;;;;;5.75;1.70;;;;;;;21.86;32.63;99096.41;7711446;32;40174;-80
2022/05/23 19:18:51;;;;;;;3.85;1.70;;;;;;;21.84;31.77;99107.09;7711475;32;40033;-80
2022/05/23 19:23:07;;;;;;;5.20;1.45;;;;;;;21.75;32.21;99121.16;7710061;32;37861;-81
2022/05/23 19:27:28;;;;;;;4.87;2.08;;;;;;;21.75;32.79;99124.75;7698534;32;37026;-82
2022/05/23 19:31:50;;;;;;;3.03;1.50;;;;;;;21.65;33.37;99127.28;7711152;32;39343;-82
2022/05/23 19:36:07;;;;;;;6.90;2.10;;;;;;;21.61;33.76;99129.97;7709847;32;41014;-81
2022/05/23 19:40:23;;;;;;;6.30;1.98;;;;;;;21.44;34.18;99149.72;7692940;32;38453;-80
2022/05/23 19:44:40;;;;;;;4.87;1.92;;;;;;;21.16;34.95;99139.56;7685314;32;37593;-82
2022/05/23 19:48:56;;;;;;;7.35;1.92;;;;;;;21.00;35.72;99137.59;7684566;32;39285;-82
2022/05/23 19:53:12;;;;;;;3.35;1.50;;;;;;;21.12;35.52;99141.47;7694084;32;39929;-81
2022/05/23 19:57:29;;;;;;;3.08;1.80;;;;;;;20.94;35.51;99127.97;7696564;32;38637;-81
2022/05/23 20:07:01;;;;;;;5.68;2.10;;;;;;;21.07;34.35;99119.56;7710616;32;40097;-82
2022/05/23 20:11:09;;;;;;;5.30;1.92;;;;;;;20.90;34.86;99117.97;7688607;32;40217;-80
2022/05/23 20:15:27;;;;;;;6.93;2.15;;;;;;;20.74;35.31;99117.97;7683952;32;38456;-79
2022/05/23 20:19:43;;;;;;;6.30;2.37;;;;;;;20.43;35.89;99125.03;7684080;32;36519;-81
2022/05/23 20:24:01;;;;;;;4.97;2.25;;;;;;;20.26;35.96;99126.97;7684346;32;37498;-80
2022/05/23 20:28:19;;;;;;;3.72;2.17;;;;;;;20.22;36.40;99130.78;7684046;32;40629;-80
2022/05/23 20:32:35;;;;;;;5.62;1.95;;;;;;;20.13;37.06;99127.34;7683905;32;38741;-79
2022/05/23 20:36:51;;;;;;;3.65;1.90;;;;;;;20.31;37.37;99138.94;7687014;32;37703;-79
2022/05/23 20:41:07;;;;;;;5.10;1.92;;;;;;;20.27;37.64;99145.16;7710246;32;39340;-78
2022/05/23 20:45:24;;;;;;;5.07;2.08;;;;;;;20.13;38.26;99150.31;7710528;32;40738;-78
2022/05/23 20:49:40;;;;;;;4.15;2.00;;;;;;;19.96;39.08;99145.84;7710410;32;38143;-79
2022/05/23 20:53:57;;;;;;;3.42;2.15;;;;;;;19.89;38.32;99129.84;7710046;32;36762;-78
2022/05/23 20:58:15;;;;;;;4.03;2.25;;;;;;;19.63;38.54;99133.00;7708860;32;39031;-78
2022/05/23 21:02:31;;;;;;;2.72;1.87;;;;;;;19.54;39.06;99123.22;7707086;32;40157;-78
2022/05/23 21:06:47;;;;;;;4.82;2.20;;;;;;;19.35;39.61;99129.34;7705693;32;38996;-78
2022/05/23 21:11:05;;;;;;;5.12;2.55;;;;;;;19.48;39.11;99120.69;7681929;32;37133;-78
2022/05/23 21:15:23;;;;;;;4.65;2.17;;;;;;;19.33;40.57;99124.16;7683660;32;39075;-77
2022/05/23 21:19:45;;;;;;;4.85;2.17;;;;;;;19.11;42.05;99140.06;7681918;32;37460;-79
2022/05/23 21:24:04;;;;;;;6.57;2.47;;;;;;;19.23;41.62;99152.25;7669453;32;39081;-78
2022/05/23 21:28:20;;;;;;;5.55;2.20;;;;;;;19.09;42.10;99153.44;7682591;32;37229;-78
2022/05/23 21:32:36;;;;;;;7.72;2.28;;;;;;;19.24;42.57;99137.31;7682538;32;40116;-78
2022/05/23 21:36:53;;;;;;;4.15;2.20;;;;;;;19.16;42.33;99140.97;7687096;32;40061;-79
2022/05/23 21:50:22;;;;;;;4.18;1.67;;;;;;;19.04;38.44;99137.06;7710927;32;39300;-79
2022/05/23 21:54:38;;;;;;;4.70;2.00;;;;;;;19.32;37.46;99133.63;7712318;32;40742;-78
2022/05/23 21:58:54;;;;;;;2.83;1.48;;;;;;;19.12;37.23;99133.38;7705658;32;37809;-78
2022/05/23 22:03:10;;;;;;;4.18;1.50;;;;;;;19.06;36.71;99133.97;7685605;32;36971;-79
2022/05/23 22:07:26;;;;;;;3.90;1.90;;;;;;;18.62;37.55;99131.69;7686241;32;40137;-78
2022/05/23 22:11:42;;;;;;;5.70;2.08;;;;;;;18.85;37.05;99129.34;7685366;32;39971;-79
2022/05/23 22:15:59;;;;;;;5.87;1.75;;;;;;;18.87;37.10;99145.59;7684015;32;37943;-79